KICT

Wichita Mid-Continental Airport

Airport
ICAO code
KICT
Summary
ICAO Region
NAM
ICAO Territory
Location

Wichita, Kansas,

Coordinates
37° 39' 3" N , 97° 25' 49" W
KCC
Airport CFIT
Altimeter Temperature Error Correction
Airport LOS
Parallel Runway Operation
Metar
KICT 192053Z 03005KT 10SM FEW017 FEW027 FEW110 BKN180 25/21 A3015 RMK AO2 RAE1959 SLP199 P0000 60004 T02500206 56010 $

Description

Wichita Mid-Continent Airport is a commercial airport located approximately 11 km southwest of the central business district of Wichita, Kansas.

Climatology

Humid “subtropical” climate (Köppen climate classification Cfa) - characterized by hot, humid summers and cool winters. Significant amounts of precipitation occur in all seasons with most falling during the summer. Winter snowfall is associated with large storms that the westerlies steer from west to east. Most summer rainfall occurs during thunderstorms.

Airport map

Aerial View

SKYbrary Partners:

Safety knowledge contributed by: